Time;durP1;ratioP1;P1;durP2;ratioP2;P2;SDS_P1;SDS_P2;PMS_P1;PMS_P2;Temp;Humidity;BMP_temperature;BMP_pressure;BME280_temperature;BME280_humidity;BME280_pressure;Samples;Min_cycle;Max_cycle;Signal;HPM_P1;HPM_P2
2021/04/12 00:01:48;;;;;;;;;;;;;;;1.11;100.00;99442.00;5070175;28;19921;-91
2021/04/12 00:10:43;;;;;;;;;;;;;;;1.03;100.00;99441.06;5063189;28;20300;-91
2021/04/12 00:13:09;;;;;;;;;;;;;;;1.02;100.00;99446.97;5031550;28;19928;-91
2021/04/12 00:15:49;;;;;;;;;;;;;;;1.06;100.00;99456.31;5049863;28;19905;-92
2021/04/12 00:18:33;;;;;;;;;;;;;;;1.15;100.00;99463.22;5051402;28;19920;-92
2021/04/12 00:21:00;;;;;;;;;;;;;;;1.06;100.00;99453.78;5062838;28;19917;-91
2021/04/12 00:23:46;;;;;;;;;;;;;;;1.07;100.00;99460.56;5041561;28;20027;-93
2021/04/12 00:26:20;;;;;;;;;;;;;;;1.06;100.00;99447.88;5055518;28;19936;-93
2021/04/12 00:28:46;;;;;;;;;;;;;;;1.03;100.00;99459.69;5029107;28;19991;-92
2021/04/12 00:31:29;;;;;;;;;;;;;;;0.99;100.00;99459.63;5030877;28;19932;-93
2021/04/12 00:33:57;;;;;;;;;;;;;;;1.04;100.00;99465.59;5026926;28;19928;-92
2021/04/12 00:37:02;;;;;;;;;;;;;;;1.02;100.00;99474.88;5057882;28;19980;-91
2021/04/12 00:39:36;;;;;;;;;;;;;;;1.15;100.00;99471.66;5055839;28;19925;-91
2021/04/12 00:42:12;;;;;;;;;;;;;;;1.18;100.00;99469.16;5028878;28;19917;-91
2021/04/12 00:44:55;;;;;;;;;;;;;;;1.14;100.00;99462.38;5053832;28;19925;-92
2021/04/12 00:47:32;;;;;;;;;;;;;;;1.14;100.00;99471.63;5024764;28;19999;-92
2021/04/12 00:50:01;;;;;;;;;;;;;;;1.06;100.00;99469.00;5047812;28;19932;-91
2021/04/12 00:52:50;;;;;;;;;;;;;;;1.00;100.00;99473.97;5047524;28;19925;-92
2021/04/12 00:55:16;;;;;;;;;;;;;;;0.87;100.00;99467.03;5036007;28;19928;-92
2021/04/12 00:57:50;;;;;;;;;;;;;;;0.90;100.00;99473.00;5035173;28;19924;-91
2021/04/12 01:00:20;;;;;;;;;;;;;;;0.90;100.00;99470.47;5049454;28;19928;-91
2021/04/12 01:02:48;;;;;;;;;;;;;;;0.85;100.00;99466.19;5049093;28;19998;-92
2021/04/12 01:05:32;;;;;;;;;;;;;;;0.79;100.00;99474.53;5050556;28;19921;-91
2021/04/12 01:08:11;;;;;;;;;;;;;;;0.80;100.00;99484.72;5050672;28;19956;-92
2021/04/12 01:10:42;;;;;;;;;;;;;;;0.85;100.00;99491.53;5047861;28;19917;-92
2021/04/12 01:13:08;;;;;;;;;;;;;;;0.79;100.00;99485.53;5016723;28;20029;-91
2021/04/12 01:15:36;;;;;;;;;;;;;;;0.81;100.00;99495.69;5036611;28;19959;-91
2021/04/12 01:18:20;;;;;;;;;;;;;;;0.70;100.00;99494.69;5035633;28;19924;-91
2021/04/12 01:21:04;;;;;;;;;;;;;;;0.78;100.00;99493.97;5052997;28;19924;-91
2021/04/12 01:23:39;;;;;;;;;;;;;;;0.77;100.00;99496.47;5044266;28;19960;-91
2021/04/12 01:26:23;;;;;;;;;;;;;;;0.64;100.00;99505.59;5031862;28;19921;-90
2021/04/12 01:28:58;;;;;;;;;;;;;;;0.66;100.00;99503.91;5034286;28;19921;-91
2021/04/12 01:31:31;;;;;;;;;;;;;;;0.76;100.00;99499.84;5050121;28;19924;-91
2021/04/12 01:33:57;;;;;;;;;;;;;;;0.75;100.00;99514.22;5036645;28;19936;-91
2021/04/12 01:36:37;;;;;;;;;;;;;;;0.75;100.00;99509.16;5029945;28;19921;-91
2021/04/12 01:39:08;;;;;;;;;;;;;;;0.80;100.00;99516.81;5047162;28;20381;-91
2021/04/12 01:41:34;;;;;;;;;;;;;;;0.87;100.00;99515.19;5021295;28;19928;-90
2021/04/12 01:44:18;;;;;;;;;;;;;;;0.86;100.00;99524.50;5021159;28;19964;-90
2021/04/12 01:46:51;;;;;;;;;;;;;;;0.78;100.00;99524.38;5033610;28;19921;-91
2021/04/12 01:49:20;;;;;;;;;;;;;;;0.80;100.00;99516.81;5032351;28;20012;-90
2021/04/12 01:51:53;;;;;;;;;;;;;;;0.77;100.00;99515.06;5023420;28;19921;-91
2021/04/12 01:54:38;;;;;;;;;;;;;;;0.74;100.00;99516.72;5020921;28;19944;-91
2021/04/12 01:57:17;;;;;;;;;;;;;;;0.73;100.00;99520.94;5050963;28;19972;-91
2021/04/12 01:59:55;;;;;;;;;;;;;;;0.60;100.00;99529.16;5017009;28;20027;-91
2021/04/12 02:02:23;;;;;;;;;;;;;;;0.60;100.00;99534.25;5042090;28;19922;-90
2021/04/12 02:05:01;;;;;;;;;;;;;;;0.60;100.00;99536.78;5046845;28;19932;-91
2021/04/12 02:07:27;;;;;;;;;;;;;;;0.56;100.00;99550.22;5016159;28;20080;-91
2021/04/12 02:09:52;;;;;;;;;;;;;;;0.62;100.00;99552.84;5032007;28;19921;-92
2021/04/12 02:12:17;;;;;;;;;;;;;;;0.53;100.00;99560.31;5034195;28;19921;-92
2021/04/12 02:14:46;;;;;;;;;;;;;;;0.59;100.00;99558.72;5034367;28;19917;-92
2021/04/12 02:17:26;;;;;;;;;;;;;;;0.58;100.00;99556.16;5046192;28;19920;-90
2021/04/12 02:19:55;;;;;;;;;;;;;;;0.46;100.00;99550.88;5053866;28;19931;-92
2021/04/12 02:22:23;;;;;;;;;;;;;;;0.58;100.00;99561.22;5036073;28;19925;-92
2021/04/12 02:25:01;;;;;;;;;;;;;;;0.47;100.00;99557.66;5037054;28;20687;-92
2021/04/12 02:27:31;;;;;;;;;;;;;;;0.47;100.00;99563.56;5043372;28;19928;-91
2021/04/12 02:29:58;;;;;;;;;;;;;;;0.52;100.00;99571.25;5027841;28;19952;-92
2021/04/12 02:32:43;;;;;;;;;;;;;;;0.47;100.00;99572.84;5046433;28;19944;-91
2021/04/12 02:35:27;;;;;;;;;;;;;;;0.56;100.00;99567.94;5054291;28;19921;-91
2021/04/12 02:37:52;;;;;;;;;;;;;;;0.55;100.00;99571.31;5052081;28;19924;-92
2021/04/12 02:40:22;;;;;;;;;;;;;;;0.62;100.00;99573.13;5062650;28;19921;-90
2021/04/12 02:43:11;;;;;;;;;;;;;;;0.56;100.00;99576.41;5049038;28;19925;-92
2021/04/12 02:45:56;;;;;;;;;;;;;;;0.59;100.00;99578.13;5048168;28;19985;-92
2021/04/12 02:48:41;;;;;;;;;;;;;;;0.50;100.00;99580.50;5062296;28;19925;-92
2021/04/12 02:51:14;;;;;;;;;;;;;;;0.51;100.00;99587.28;5063925;28;20017;-91
2021/04/12 02:54:05;;;;;;;;;;;;;;;0.48;100.00;99579.63;5036079;28;19925;-92
2021/04/12 02:56:39;;;;;;;;;;;;;;;0.43;100.00;99576.16;5063589;28;19917;-91
2021/04/12 02:59:10;;;;;;;;;;;;;;;0.41;100.00;99587.13;5061967;28;20020;-92
2021/04/12 03:01:56;;;;;;;;;;;;;;;0.45;100.00;99584.66;5031896;28;19984;-92
2021/04/12 03:04:40;;;;;;;;;;;;;;;0.44;100.00;99577.88;5050467;28;19921;-92
2021/04/12 03:07:16;;;;;;;;;;;;;;;0.47;100.00;99575.38;5063176;28;19986;-92
2021/04/12 03:09:46;;;;;;;;;;;;;;;0.53;100.00;99573.81;5046589;28;19917;-91
2021/04/12 03:12:35;;;;;;;;;;;;;;;0.42;100.00;99585.44;5051270;28;19947;-91
2021/04/12 03:15:29;;;;;;;;;;;;;;;0.30;100.00;99581.00;5063509;28;20279;-91
2021/04/12 03:21:18;;;;;;;;;;;;;;;0.25;100.00;99581.72;5066632;28;19940;-90
2021/04/12 03:24:08;;;;;;;;;;;;;;;0.27;100.00;99588.53;5071089;28;19909;-91
2021/04/12 03:26:45;;;;;;;;;;;;;;;0.27;100.00;99593.59;5070384;28;19928;-90
2021/04/12 03:29:30;;;;;;;;;;;;;;;0.33;100.00;99588.66;5069607;28;19943;-90
2021/04/12 03:34:55;;;;;;;;;;;;;;;0.35;100.00;99583.63;5031584;28;19925;-91
2021/04/12 03:37:39;;;;;;;;;;;;;;;0.33;100.00;99583.59;5031361;28;20370;-90
2021/04/12 03:40:08;;;;;;;;;;;;;;;0.30;100.00;99586.06;5000098;28;19948;-92
2021/04/12 03:42:36;;;;;;;;;;;;;;;0.24;100.00;99590.19;4996156;28;19944;-92
2021/04/12 03:45:16;;;;;;;;;;;;;;;0.27;100.00;99592.75;4995870;28;20484;-92
2021/04/12 03:48:00;;;;;;;;;;;;;;;0.27;100.00;99586.00;4976199;28;19987;-92
2021/04/12 03:50:28;;;;;;;;;;;;;;;0.24;100.00;99595.25;5010848;28;20413;-93
2021/04/12 03:52:56;;;;;;;;;;;;;;;0.28;100.00;99595.31;4979891;28;19960;-92
2021/04/12 03:55:34;;;;;;;;;;;;;;;0.33;100.00;99593.72;5001867;28;20373;-92
2021/04/12 03:58:15;;;;;;;;;;;;;;;0.31;100.00;99592.84;4987282;28;20377;-87
2021/04/12 04:00:50;;;;;;;;;;;;;;;0.26;100.00;99604.56;4975323;28;19937;-88
2021/04/12 04:03:33;;;;;;;;;;;;;;;0.34;100.00;99610.66;4996627;28;19986;-87
2021/04/12 04:06:02;;;;;;;;;;;;;;;0.33;100.00;99611.47;4978684;28;19972;-86
2021/04/12 04:08:46;;;;;;;;;;;;;;;0.37;100.00;99613.22;4979214;28;19925;-87
2021/04/12 04:11:26;;;;;;;;;;;;;;;0.36;100.00;99619.09;4978655;28;20397;-87
2021/04/12 04:14:10;;;;;;;;;;;;;;;0.67;100.00;99612.09;4979295;28;19932;-87
2021/04/12 04:16:36;;;;;;;;;;;;;;;0.51;100.00;99625.31;4979043;28;19957;-87
2021/04/12 04:19:03;;;;;;;;;;;;;;;0.62;100.00;99618.75;4978810;28;19987;-87
2021/04/12 04:21:47;;;;;;;;;;;;;;;0.47;100.00;99628.59;4963601;28;20055;-86
2021/04/12 04:24:32;;;;;;;;;;;;;;;0.86;100.00;99637.75;4980090;28;19925;-89
2021/04/12 04:27:17;;;;;;;;;;;;;;;1.27;100.00;99635.03;4980710;28;19921;-87
2021/04/12 04:29:47;;;;;;;;;;;;;;;1.07;100.00;99633.03;4996639;28;19944;-87
2021/04/12 04:32:31;;;;;;;;;;;;;;;1.19;100.00;99627.31;4972713;28;19926;-87
2021/04/12 04:35:02;;;;;;;;;;;;;;;1.33;100.00;99633.47;4994639;28;19960;-88
2021/04/12 04:37:46;;;;;;;;;;;;;;;1.18;100.00;99639.13;5011869;28;19918;-88
2021/04/12 04:40:13;;;;;;;;;;;;;;;1.21;100.00;99639.19;4996727;28;19917;-87
2021/04/12 04:42:57;;;;;;;;;;;;;;;1.30;100.00;99641.03;4995220;28;19926;-87
2021/04/12 04:45:32;;;;;;;;;;;;;;;1.22;100.00;99647.66;5011750;28;19949;-87
2021/04/12 04:48:16;;;;;;;;;;;;;;;1.27;100.00;99651.13;5010599;28;21123;-88
2021/04/12 04:50:47;;;;;;;;;;;;;;;1.15;100.00;99659.38;4994990;28;19975;-88
2021/04/12 04:53:18;;;;;;;;;;;;;;;1.23;100.00;99656.97;5011109;28;19928;-87
2021/04/12 04:55:55;;;;;;;;;;;;;;;1.32;100.00;99658.78;5009784;28;19926;-88
2021/04/12 04:58:33;;;;;;;;;;;;;;;0.95;100.00;99659.03;4995799;28;19921;-87
2021/04/12 05:01:08;;;;;;;;;;;;;;;0.97;100.00;99662.47;4995502;28;19937;-87
2021/04/12 05:03:39;;;;;;;;;;;;;;;1.08;100.00;99664.34;4996611;28;19922;-89
2021/04/12 05:06:04;;;;;;;;;;;;;;;0.89;100.00;99668.22;5013465;28;19925;-89
2021/04/12 05:08:32;;;;;;;;;;;;;;;0.83;100.00;99674.91;4997866;28;19936;-88
2021/04/12 05:10:57;;;;;;;;;;;;;;;0.82;100.00;99685.00;5011391;28;19933;-87
2021/04/12 05:13:36;;;;;;;;;;;;;;;0.79;100.00;99683.28;4993693;28;19952;-86
2021/04/12 05:16:01;;;;;;;;;;;;;;;1.06;100.00;99686.28;4996615;28;20016;-88
2021/04/12 05:18:45;;;;;;;;;;;;;;;0.85;100.00;99694.38;4998662;28;19921;-86
2021/04/12 05:21:14;;;;;;;;;;;;;;;0.86;100.00;99693.53;4995691;28;19928;-86
2021/04/12 05:23:58;;;;;;;;;;;;;;;1.04;100.00;99689.63;4991197;28;19921;-88
2021/04/12 05:26:42;;;;;;;;;;;;;;;0.99;100.00;99696.31;5000282;28;19925;-88
2021/04/12 05:29:26;;;;;;;;;;;;;;;1.21;100.00;99707.69;4984523;28;19922;-88
2021/04/12 05:31:51;;;;;;;;;;;;;;;1.23;100.00;99705.16;4994842;28;19925;-89
2021/04/12 05:34:26;;;;;;;;;;;;;;;1.17;100.00;99710.16;5014067;28;19921;-88
2021/04/12 05:37:10;;;;;;;;;;;;;;;1.23;100.00;99713.66;5012111;28;19921;-89
2021/04/12 05:39:54;;;;;;;;;;;;;;;0.99;100.00;99730.97;5014407;28;20296;-88
2021/04/12 05:42:24;;;;;;;;;;;;;;;1.12;100.00;99714.28;4995830;28;20292;-88
2021/04/12 05:44:55;;;;;;;;;;;;;;;1.31;100.00;99721.38;4996657;28;19921;-88
2021/04/12 05:47:23;;;;;;;;;;;;;;;1.19;100.00;99729.66;5013235;28;19921;-88
2021/04/12 05:49:55;;;;;;;;;;;;;;;1.09;100.00;99731.97;5012941;28;19929;-89
2021/04/12 05:52:26;;;;;;;;;;;;;;;1.15;100.00;99732.09;5014262;28;20285;-87
2021/04/12 05:55:04;;;;;;;;;;;;;;;1.21;100.00;99739.84;4996856;28;19921;-89
2021/04/12 05:57:35;;;;;;;;;;;;;;;1.16;100.00;99744.78;5013235;28;19931;-89
2021/04/12 06:00:13;;;;;;;;;;;;;;;1.35;100.00;99745.16;4996538;28;20047;-90
2021/04/12 06:02:51;;;;;;;;;;;;;;;1.46;100.00;99748.72;5011935;28;20058;-90
2021/04/12 06:05:19;;;;;;;;;;;;;;;1.54;100.00;99757.31;5014571;28;20011;-91
2021/04/12 06:08:03;;;;;;;;;;;;;;;1.35;100.00;99752.75;4995805;28;19947;-89
2021/04/12 06:10:43;;;;;;;;;;;;;;;1.42;100.00;99755.41;5013460;28;19935;-90
2021/04/12 06:13:12;;;;;;;;;;;;;;;1.33;100.00;99767.94;4980078;28;19999;-88
2021/04/12 06:16:00;;;;;;;;;;;;;;;0.90;100.00;99768.84;5012798;28;19956;-88
2021/04/12 06:18:45;;;;;;;;;;;;;;;0.93;100.00;99777.34;5003934;28;19991;-91
2021/04/12 06:21:19;;;;;;;;;;;;;;;1.20;100.00;99771.94;4998263;28;19957;-89
2021/04/12 06:24:04;;;;;;;;;;;;;;;1.49;100.00;99774.16;5014789;28;20039;-87
2021/04/12 06:26:48;;;;;;;;;;;;;;;1.20;100.00;99776.16;5023845;28;19921;-89
2021/04/12 06:29:15;;;;;;;;;;;;;;;1.25;100.00;99780.50;4994449;28;20526;-87
2021/04/12 06:31:54;;;;;;;;;;;;;;;1.41;100.00;99778.22;4990639;28;20720;-89
2021/04/12 06:34:22;;;;;;;;;;;;;;;1.39;100.00;99787.47;4993422;28;20135;-88
2021/04/12 06:37:07;;;;;;;;;;;;;;;1.66;100.00;99785.41;4992858;28;19929;-89
2021/04/12 06:39:34;;;;;;;;;;;;;;;1.64;100.00;99789.63;4977269;28;19947;-89
2021/04/12 06:42:25;;;;;;;;;;;;;;;1.52;100.00;99789.41;4965110;28;20319;-90
2021/04/12 06:45:00;;;;;;;;;;;;;;;1.49;100.00;99786.00;5009385;28;19944;-91
2021/04/12 06:50:16;;;;;;;;;;;;;;;1.76;100.00;99798.28;5191113;23;19929;-89
2021/04/12 06:53:11;;;;;;;;;;;;;;;2.18;100.00;99797.22;4998102;28;19928;-91
2021/04/12 06:55:43;;;;;;;;;;;;;;;2.50;100.00;99795.13;4940941;28;19911;-92
2021/04/12 07:03:39;;;;;;;;;;;;;;;2.35;100.00;99803.44;5231587;23;19933;-89
2021/04/12 07:06:10;;;;;;;;;;;;;;;2.12;100.00;99812.38;4985551;28;19932;-90
2021/04/12 07:11:26;;;;;;;;;;;;;;;2.62;100.00;99804.59;5171304;23;19984;-89
2021/04/12 07:13:54;;;;;;;;;;;;;;;2.66;100.00;99807.22;5007822;28;19910;-90
2021/04/12 07:16:20;;;;;;;;;;;;;;;2.92;100.00;99814.34;5017191;28;19921;-91
2021/04/12 07:18:46;;;;;;;;;;;;;;;3.05;100.00;99805.97;5011534;28;19957;-92
2021/04/12 07:21:30;;;;;;;;;;;;;;;2.47;100.00;99816.28;5010648;28;19948;-91
2021/04/12 07:24:08;;;;;;;;;;;;;;;2.42;100.00;99822.16;5006714;28;20004;-90
2021/04/12 07:26:52;;;;;;;;;;;;;;;2.64;100.00;99830.91;5015322;28;20065;-91
2021/04/12 07:29:22;;;;;;;;;;;;;;;2.35;100.00;99831.38;5014243;28;19921;-92
2021/04/12 07:32:08;;;;;;;;;;;;;;;2.98;100.00;99829.66;5003137;28;20685;-92
2021/04/12 07:34:37;;;;;;;;;;;;;;;3.48;100.00;99828.50;4977233;28;20289;-91
2021/04/12 07:37:05;;;;;;;;;;;;;;;3.36;100.00;99829.25;5007379;28;19925;-91
2021/04/12 07:39:33;;;;;;;;;;;;;;;2.79;100.00;99827.72;5000695;28;19933;-91
2021/04/12 07:42:22;;;;;;;;;;;;;;;2.78;100.00;99837.03;4995523;28;20023;-90
2021/04/12 07:45:03;;;;;;;;;;;;;;;3.97;100.00;99827.25;4968526;28;19933;-92
2021/04/12 07:47:37;;;;;;;;;;;;;;;3.27;100.00;99827.44;4998744;28;19983;-93
2021/04/12 07:50:32;;;;;;;;;;;;;;;2.92;100.00;99838.09;4983800;28;19984;-93
2021/04/12 07:53:16;;;;;;;;;;;;;;;3.43;100.00;99838.66;4927335;28;20029;-93
2021/04/12 07:55:44;;;;;;;;;;;;;;;3.49;100.00;99836.16;5001540;28;19921;-93
2021/04/12 07:58:28;;;;;;;;;;;;;;;3.25;100.00;99844.38;4995443;28;19929;-92
2021/04/12 08:01:03;;;;;;;;;;;;;;;2.71;100.00;99845.41;4985979;28;20048;-92
2021/04/12 08:03:51;;;;;;;;;;;;;;;2.79;100.00;99854.00;4981262;28;19956;-93
2021/04/12 08:06:35;;;;;;;;;;;;;;;3.26;100.00;99857.97;4984172;28;19964;-92
2021/04/12 08:09:01;;;;;;;;;;;;;;;3.08;100.00;99856.94;5001497;28;19922;-92
2021/04/12 08:11:42;;;;;;;;;;;;;;;3.26;100.00;99851.22;5001059;28;19934;-93
2021/04/12 08:14:20;;;;;;;;;;;;;;;3.73;100.00;99848.28;4998668;28;19949;-92
2021/04/12 08:16:58;;;;;;;;;;;;;;;3.49;100.00;99853.13;5005320;28;19932;-91
2021/04/12 08:19:33;;;;;;;;;;;;;;;2.90;100.00;99867.72;4999998;28;19922;-89
2021/04/12 08:22:17;;;;;;;;;;;;;;;2.85;100.00;99864.28;5230624;23;20072;-92
2021/04/12 08:25:00;;;;;;;;;;;;;;;3.09;100.00;99868.81;4997020;28;19976;-91
2021/04/12 08:27:36;;;;;;;;;;;;;;;2.97;100.00;99868.66;5034438;28;19925;-92
2021/04/12 08:30:13;;;;;;;;;;;;;;;3.00;100.00;99870.41;5044271;28;19917;-92
2021/04/12 08:32:44;;;;;;;;;;;;;;;3.19;100.00;99874.84;5053858;28;19961;-91
2021/04/12 08:35:31;;;;;;;;;;;;;;;3.14;100.00;99884.13;5036939;28;19917;-92
2021/04/12 08:38:11;;;;;;;;;;;;;;;3.14;100.00;99891.78;5040743;28;19921;-91
2021/04/12 08:40:46;;;;;;;;;;;;;;;3.41;100.00;99885.31;5048964;28;19953;-93
2021/04/12 08:43:30;;;;;;;;;;;;;;;3.98;100.00;99881.63;5037658;28;19936;-92
2021/04/12 08:46:04;;;;;;;;;;;;;;;4.06;100.00;99887.66;5051151;28;19917;-92
2021/04/12 08:48:49;;;;;;;;;;;;;;;4.07;100.00;99893.59;5039957;23;19930;-92
2021/04/12 08:51:36;;;;;;;;;;;;;;;2.99;100.00;99901.75;4999978;28;20093;-93
2021/04/12 09:22:21;;;;;;;;;;;;;;;;;;;;;
2021/04/12 09:25:14;;;;;;;;;;;;;;;3.71;100.00;99911.09;4927773;29;19933;-93
2021/04/12 09:28:05;;;;;;;;;;;;;;;3.62;100.00;99921.19;4920140;29;20014;-93
2021/04/12 09:30:59;;;;;;;;;;;;;;;;;;;;;
2021/04/12 09:33:56;;;;;;;;;;;;;;;;;;;;;
2021/04/12 09:36:53;;;;;;;;;;;;;;;;;;;;;
2021/04/12 09:39:38;;;;;;;;;;;;;;;3.76;100.00;99923.88;4924146;29;20894;-91
2021/04/12 09:42:22;;;;;;;;;;;;;;;3.54;100.00;99935.53;4919958;29;19923;-93
2021/04/12 09:44:59;;;;;;;;;;;;;;;4.07;100.00;99926.72;4922373;29;21076;-92
2021/04/12 09:47:53;;;;;;;;;;;;;;;4.22;100.00;99926.88;4978339;28;19973;-93
2021/04/12 09:51:00;;;;;;;;;;;;;;;4.98;100.00;99929.09;4973762;28;19929;-93
2021/04/12 09:53:59;;;;;;;;;;;;;;;4.31;100.00;99924.41;4978209;28;19949;-92
2021/04/12 09:56:53;;;;;;;;;;;;;;;;;;;;;
2021/04/12 10:02:48;;;;;;;;;;;;;;;5.10;100.00;99920.66;4973009;28;20338;-92
2021/04/12 10:05:26;;;;;;;;;;;;;;;5.28;100.00;99917.34;4968150;28;19937;-93
2021/04/12 10:08:11;;;;;;;;;;;;;;;4.13;100.00;99924.25;4971205;28;19922;-92
2021/04/12 10:11:13;;;;;;;;;;;;;;;3.87;100.00;99926.53;4980132;28;19942;-93
2021/04/12 10:13:42;;;;;;;;;;;;;;;4.78;100.00;99920.47;4952745;28;19977;-93
2021/04/12 10:16:12;;;;;;;;;;;;;;;6.08;100.00;99907.34;4951475;28;19988;-93
2021/04/12 10:18:51;;;;;;;;;;;;;;;;;;;;;
2021/04/12 10:21:32;;;;;;;;;;;;;;;5.90;100.00;99909.84;4991883;28;19922;-93
2021/04/12 10:24:28;;;;;;;;;;;;;;;5.19;100.00;99913.03;4978560;28;19922;-94
2021/04/12 10:26:56;;;;;;;;;;;;;;;5.05;100.00;99913.84;4969041;28;19926;-93
2021/04/12 10:29:27;;;;;;;;;;;;;;;6.34;97.21;99906.50;4949125;28;19934;-94
2021/04/12 10:31:56;;;;;;;;;;;;;;;7.29;95.60;99907.13;4961348;28;20046;-92
2021/04/12 10:34:35;;;;;;;;;;;;;;;6.33;97.43;99902.25;4969239;28;19952;-93
2021/04/12 10:37:19;;;;;;;;;;;;;;;5.85;96.74;99910.69;4961634;28;19926;-94
2021/04/12 10:40:08;;;;;;;;;;;;;;;6.91;93.78;99902.13;4964424;28;19925;-92
2021/04/12 10:46:21;;;;;;;;;;;;;;;7.02;89.64;99900.41;4952406;28;19930;-93
2021/04/12 10:48:42;;;;;;;;;;;;;;;7.63;89.16;99901.00;4955553;28;19932;-93
2021/04/12 10:51:36;;;;;;;;;;;;;;;5.82;96.86;99915.81;4950616;28;20408;-94
2021/04/12 10:54:30;;;;;;;;;;;;;;;4.45;98.90;99932.16;4981139;28;19925;-93
2021/04/12 10:57:32;;;;;;;;;;;;;;;;;;;;;
2021/04/12 11:00:21;;;;;;;;;;;;;;;4.32;100.00;99925.25;4985981;28;19926;-92
2021/04/12 11:03:18;;;;;;;;;;;;;;;;;;;;;
2021/04/12 11:15:58;;;;;;;;;;;;;;;5.86;91.23;99926.88;4830069;29;19960;-92
2021/04/12 11:18:47;;;;;;;;;;;;;;;6.38;92.75;99919.28;4889710;29;19928;-95
2021/04/12 11:24:30;;;;;;;;;;;;;;;5.43;92.59;99922.50;5002649;28;19960;-93
2021/04/12 11:27:15;;;;;;;;;;;;;;;4.86;96.94;99936.69;4981020;28;19949;-93
2021/04/12 11:29:41;;;;;;;;;;;;;;;4.34;100.00;99937.16;4995748;28;20682;-93
2021/04/12 11:32:09;;;;;;;;;;;;;;;4.28;100.00;99949.00;4964921;28;19922;-93
2021/04/12 11:34:52;;;;;;;;;;;;;;;5.20;100.00;99944.53;4988018;28;19906;-93
2021/04/12 11:37:37;;;;;;;;;;;;;;;5.30;98.49;99941.19;4978930;28;19926;-93
2021/04/12 11:40:55;;;;;;;;;;;;;;;;;;;;;
2021/04/12 11:43:26;;;;;;;;;;;;;;;5.27;99.71;99951.41;4973826;28;19928;-92
2021/04/12 11:46:00;;;;;;;;;;;;;;;4.71;100.00;99954.44;4990160;28;19933;-94
2021/04/12 11:48:46;;;;;;;;;;;;;;;4.22;100.00;99959.16;4981831;28;20029;-94
2021/04/12 11:51:30;;;;;;;;;;;;;;;4.60;100.00;99950.13;4982929;28;19922;-93
2021/04/12 11:54:00;;;;;;;;;;;;;;;4.57;100.00;99956.91;4995720;28;19922;-94
2021/04/12 11:56:31;;;;;;;;;;;;;;;4.65;100.00;99955.25;4980495;28;19925;-93
2021/04/12 11:59:06;;;;;;;;;;;;;;;4.42;98.70;99970.38;4981650;28;20021;-92
2021/04/12 12:01:37;;;;;;;;;;;;;;;4.43;100.00;99968.72;4969344;28;19928;-93
2021/04/12 12:04:18;;;;;;;;;;;;;;;4.03;100.00;99981.91;4995173;28;20432;-93
2021/04/12 12:06:46;;;;;;;;;;;;;;;2.52;100.00;100001.97;4984585;28;20475;-91
2021/04/12 12:09:13;;;;;;;;;;;;;;;2.15;100.00;100011.50;4981629;28;19945;-92
2021/04/12 12:11:50;;;;;;;;;;;;;;;2.31;100.00;100020.25;4983980;28;19926;-91
2021/04/12 12:14:23;;;;;;;;;;;;;;;2.32;100.00;100004.16;4983723;28;19933;-92
2021/04/12 12:16:53;;;;;;;;;;;;;;;2.33;100.00;100003.34;4975039;28;19929;-93
2021/04/12 12:19:21;;;;;;;;;;;;;;;2.86;100.00;99998.25;4968787;28;19925;-93
2021/04/12 12:22:09;;;;;;;;;;;;;;;2.67;100.00;100002.22;4977493;28;20022;-93
2021/04/12 12:25:05;;;;;;;;;;;;;;;3.63;100.00;99994.22;4965993;28;19936;-94
2021/04/12 12:27:32;;;;;;;;;;;;;;;4.58;100.00;99985.00;4995182;28;19921;-93
2021/04/12 12:30:17;;;;;;;;;;;;;;;4.24;100.00;99990.63;4983749;28;20331;-92
2021/04/12 12:33:15;;;;;;;;;;;;;;;5.52;100.00;99984.69;4972795;28;19926;-91
2021/04/12 12:35:40;;;;;;;;;;;;;;;5.96;100.00;99973.81;4973063;28;19929;-92
2021/04/12 12:38:09;;;;;;;;;;;;;;;6.93;100.00;99969.56;4978400;28;19926;-92
2021/04/12 12:40:50;;;;;;;;;;;;;;;6.50;100.00;99979.88;4984739;28;19933;-92
2021/04/12 12:43:19;;;;;;;;;;;;;;;5.61;100.00;99982.16;4974455;28;19925;-92
2021/04/12 12:45:45;;;;;;;;;;;;;;;6.25;100.00;99972.16;4952126;28;19926;-91
2021/04/12 12:48:17;;;;;;;;;;;;;;;6.14;99.28;99973.84;4951256;28;19926;-90
2021/04/12 12:50:49;;;;;;;;;;;;;;;4.75;99.31;99994.47;4985151;28;19925;-92
2021/04/12 12:53:23;;;;;;;;;;;;;;;4.72;100.00;99999.53;4953177;28;19929;-92
2021/04/12 12:55:50;;;;;;;;;;;;;;;4.29;100.00;100022.09;4988362;28;19981;-91
2021/04/12 12:58:36;;;;;;;;;;;;;;;3.23;100.00;100041.22;4951464;28;19926;-92
2021/04/12 13:01:02;;;;;;;;;;;;;;;3.23;100.00;100044.59;4971925;28;19980;-90
2021/04/12 13:03:28;;;;;;;;;;;;;;;3.24;100.00;100037.81;4967852;28;19921;-92
2021/04/12 13:05:53;;;;;;;;;;;;;;;2.69;100.00;100040.38;4987969;28;20067;-91
2021/04/12 13:08:28;;;;;;;;;;;;;;;2.93;100.00;100048.41;4967227;28;20012;-92
2021/04/12 13:10:54;;;;;;;;;;;;;;;2.70;100.00;100053.13;4971552;28;19933;-92
2021/04/12 13:13:29;;;;;;;;;;;;;;;2.99;100.00;100036.59;4955770;28;19926;-93
2021/04/12 13:15:55;;;;;;;;;;;;;;;3.56;100.00;100038.28;4988160;28;19937;-91
2021/04/12 13:18:21;;;;;;;;;;;;;;;4.25;100.00;100033.13;4970750;28;19926;-90
2021/04/12 13:21:05;;;;;;;;;;;;;;;3.31;100.00;100025.22;4974025;28;19987;-92
2021/04/12 13:23:58;;;;;;;;;;;;;;;3.70;100.00;100031.66;4984390;28;19929;-92
2021/04/12 13:26:33;;;;;;;;;;;;;;;3.38;100.00;100023.63;4971756;28;19926;-92
2021/04/12 13:29:02;;;;;;;;;;;;;;;3.70;100.00;100026.56;4973624;28;19925;-94
2021/04/12 13:31:59;;;;;;;;;;;;;;;3.63;100.00;100017.16;4983384;28;20271;-93
2021/04/12 13:34:26;;;;;;;;;;;;;;;4.15;100.00;100025.41;4978431;28;19925;-93
2021/04/12 13:36:56;;;;;;;;;;;;;;;4.66;100.00;100012.25;4980847;28;19952;-93
2021/04/12 13:39:29;;;;;;;;;;;;;;;4.90;100.00;100007.31;4954835;28;19926;-93
2021/04/12 13:41:54;;;;;;;;;;;;;;;5.09;100.00;100007.47;4974828;28;19933;-93
2021/04/12 13:44:23;;;;;;;;;;;;;;;5.13;100.00;100009.19;4954450;28;20267;-92
2021/04/12 13:47:03;;;;;;;;;;;;;;;4.55;100.00;100010.44;4971999;28;19925;-93
2021/04/12 13:49:41;;;;;;;;;;;;;;;4.55;100.00;100009.59;4985161;28;19922;-93
2021/04/12 13:52:21;;;;;;;;;;;;;;;5.03;100.00;100001.47;4976774;28;19926;-93
2021/04/12 13:54:49;;;;;;;;;;;;;;;5.15;100.00;100007.50;4967159;28;20337;-93
2021/04/12 13:57:29;;;;;;;;;;;;;;;5.52;100.00;100005.13;4949993;28;20538;-93
2021/04/12 14:00:04;;;;;;;;;;;;;;;5.86;100.00;99999.31;4987099;28;19925;-92
2021/04/12 14:02:33;;;;;;;;;;;;;;;5.44;100.00;100003.41;4951387;28;19926;-93
2021/04/12 14:05:04;;;;;;;;;;;;;;;5.49;100.00;99997.47;4975576;28;19932;-92
2021/04/12 14:07:29;;;;;;;;;;;;;;;5.91;99.50;99993.34;4969192;28;20525;-92
2021/04/12 14:10:12;;;;;;;;;;;;;;;5.87;99.87;99995.06;4966600;28;19926;-93
2021/04/12 14:12:49;;;;;;;;;;;;;;;5.72;98.10;99989.88;4963750;28;19961;-94
2021/04/12 14:15:16;;;;;;;;;;;;;;;6.06;94.25;99998.53;4984376;28;19925;-93
2021/04/12 14:17:49;;;;;;;;;;;;;;;5.55;93.14;99995.78;4955174;28;20029;-93
2021/04/12 14:20:36;;;;;;;;;;;;;;;5.60;94.73;99999.22;4955864;28;19936;-94
2021/04/12 14:23:04;;;;;;;;;;;;;;;6.18;95.97;99996.03;4969863;28;19937;-93
2021/04/12 14:25:34;;;;;;;;;;;;;;;6.24;94.45;100000.28;4972273;28;19949;-93
2021/04/12 14:28:14;;;;;;;;;;;;;;;6.06;94.19;100004.50;4963436;28;19926;-93
2021/04/12 14:30:47;;;;;;;;;;;;;;;6.06;93.92;99999.38;4989696;28;19925;-93
2021/04/12 14:33:15;;;;;;;;;;;;;;;5.86;93.16;100009.56;4977905;28;19973;-92
2021/04/12 14:35:44;;;;;;;;;;;;;;;5.49;94.65;100002.56;4954980;28;19926;-93
2021/04/12 14:38:14;;;;;;;;;;;;;;;5.59;94.67;100007.75;4952527;28;19926;-92
2021/04/12 14:40:40;;;;;;;;;;;;;;;6.17;93.88;99994.31;4966088;28;19921;-92
2021/04/12 14:43:10;;;;;;;;;;;;;;;5.54;90.74;100006.00;4957001;28;19929;-93
2021/04/12 14:45:47;;;;;;;;;;;;;;;5.33;91.79;100004.19;4965143;28;19921;-92
2021/04/12 14:48:17;;;;;;;;;;;;;;;5.23;90.74;99996.47;4971397;28;20453;-92
2021/04/12 14:51:12;;;;;;;;;;;;;;;5.49;92.16;100000.00;4969024;28;19965;-92
2021/04/12 14:53:47;;;;;;;;;;;;;;;5.97;92.22;99990.84;4952418;28;19930;-93
2021/04/12 14:58:47;;;;;;;;;;;;;;;5.63;90.44;100000.91;5055498;23;19930;-92
2021/04/12 15:01:24;;;;;;;;;;;;;;;5.71;90.03;100001.81;4975539;28;19925;-91
2021/04/12 15:03:49;;;;;;;;;;;;;;;5.33;91.88;99999.94;4979393;28;19973;-92